sensor_id;sensor_type;location;lat;lon;timestamp;P1;durP1;ratioP1;P2;durP2;ratioP2
33824;SDS011;20127;48.962;8.342;2022-07-25T00:01:15;9.82;;;5.53;;
33824;SDS011;20127;48.962;8.342;2022-07-25T00:04:17;9.88;;;6.32;;
33824;SDS011;20127;48.962;8.342;2022-07-25T00:07:18;8.90;;;5.93;;
33824;SDS011;20127;48.962;8.342;2022-07-25T00:10:20;14.60;;;6.65;;
33824;SDS011;20127;48.962;8.342;2022-07-25T00:13:23;9.77;;;5.75;;
33824;SDS011;20127;48.962;8.342;2022-07-25T00:16:25;6.88;;;5.82;;
33824;SDS011;20127;48.962;8.342;2022-07-25T00:19:27;7.68;;;5.88;;
33824;SDS011;20127;48.962;8.342;2022-07-25T00:22:28;6.85;;;5.53;;
33824;SDS011;20127;48.962;8.342;2022-07-25T00:25:30;9.55;;;5.20;;
33824;SDS011;20127;48.962;8.342;2022-07-25T00:28:34;7.25;;;5.03;;
33824;SDS011;20127;48.962;8.342;2022-07-25T00:31:35;8.30;;;6.10;;
33824;SDS011;20127;48.962;8.342;2022-07-25T00:34:37;5.63;;;5.07;;
33824;SDS011;20127;48.962;8.342;2022-07-25T00:37:39;8.13;;;6.55;;
33824;SDS011;20127;48.962;8.342;2022-07-25T00:40:40;11.43;;;5.97;;
33824;SDS011;20127;48.962;8.342;2022-07-25T00:43:44;6.68;;;5.38;;
33824;SDS011;20127;48.962;8.342;2022-07-25T00:46:46;8.75;;;6.05;;
33824;SDS011;20127;48.962;8.342;2022-07-25T00:49:47;7.40;;;5.75;;
33824;SDS011;20127;48.962;8.342;2022-07-25T00:52:49;7.25;;;5.07;;
33824;SDS011;20127;48.962;8.342;2022-07-25T00:55:52;10.20;;;5.80;;
33824;SDS011;20127;48.962;8.342;2022-07-25T00:58:55;7.80;;;5.78;;
33824;SDS011;20127;48.962;8.342;2022-07-25T01:01:57;9.43;;;5.82;;
33824;SDS011;20127;48.962;8.342;2022-07-25T01:04:59;9.02;;;6.60;;
33824;SDS011;20127;48.962;8.342;2022-07-25T01:08:01;9.55;;;5.45;;
33824;SDS011;20127;48.962;8.342;2022-07-25T01:11:03;8.07;;;5.68;;
33824;SDS011;20127;48.962;8.342;2022-07-25T01:14:07;9.73;;;6.97;;
33824;SDS011;20127;48.962;8.342;2022-07-25T01:17:09;5.97;;;5.32;;
33824;SDS011;20127;48.962;8.342;2022-07-25T01:20:14;9.65;;;5.68;;
33824;SDS011;20127;48.962;8.342;2022-07-25T01:23:16;8.57;;;6.30;;
33824;SDS011;20127;48.962;8.342;2022-07-25T01:26:18;7.97;;;6.13;;
33824;SDS011;20127;48.962;8.342;2022-07-25T01:29:20;8.23;;;5.47;;
33824;SDS011;20127;48.962;8.342;2022-07-25T01:32:21;7.47;;;6.03;;
33824;SDS011;20127;48.962;8.342;2022-07-25T01:35:24;14.73;;;6.75;;
33824;SDS011;20127;48.962;8.342;2022-07-25T01:38:26;8.57;;;5.65;;
33824;SDS011;20127;48.962;8.342;2022-07-25T01:41:28;7.85;;;6.28;;
33824;SDS011;20127;48.962;8.342;2022-07-25T01:44:30;8.07;;;6.13;;
33824;SDS011;20127;48.962;8.342;2022-07-25T01:47:31;7.85;;;6.05;;
33824;SDS011;20127;48.962;8.342;2022-07-25T01:50:34;10.20;;;5.63;;
33824;SDS011;20127;48.962;8.342;2022-07-25T01:53:36;8.88;;;5.45;;
33824;SDS011;20127;48.962;8.342;2022-07-25T01:56:41;9.63;;;5.68;;
33824;SDS011;20127;48.962;8.342;2022-07-25T01:59:43;7.75;;;5.75;;
33824;SDS011;20127;48.962;8.342;2022-07-25T02:02:45;9.80;;;6.00;;
33824;SDS011;20127;48.962;8.342;2022-07-25T02:05:48;6.85;;;5.75;;
33824;SDS011;20127;48.962;8.342;2022-07-25T02:08:50;10.10;;;5.90;;
33824;SDS011;20127;48.962;8.342;2022-07-25T02:11:51;8.50;;;6.18;;
33824;SDS011;20127;48.962;8.342;2022-07-25T02:14:53;8.70;;;6.05;;
33824;SDS011;20127;48.962;8.342;2022-07-25T02:17:55;8.25;;;5.55;;
33824;SDS011;20127;48.962;8.342;2022-07-25T02:20:58;7.15;;;6.03;;
33824;SDS011;20127;48.962;8.342;2022-07-25T02:24:00;9.88;;;6.53;;
33824;SDS011;20127;48.962;8.342;2022-07-25T02:27:02;8.25;;;6.22;;
33824;SDS011;20127;48.962;8.342;2022-07-25T02:30:04;6.25;;;5.63;;
33824;SDS011;20127;48.962;8.342;2022-07-25T02:33:07;7.47;;;5.00;;
33824;SDS011;20127;48.962;8.342;2022-07-25T02:36:10;9.02;;;6.50;;
33824;SDS011;20127;48.962;8.342;2022-07-25T02:39:12;6.82;;;5.72;;
33824;SDS011;20127;48.962;8.342;2022-07-25T02:42:14;9.00;;;5.80;;
33824;SDS011;20127;48.962;8.342;2022-07-25T02:45:16;7.25;;;5.85;;
33824;SDS011;20127;48.962;8.342;2022-07-25T02:48:18;11.13;;;6.90;;
33824;SDS011;20127;48.962;8.342;2022-07-25T02:51:21;7.93;;;5.72;;
33824;SDS011;20127;48.962;8.342;2022-07-25T02:54:23;10.32;;;6.53;;
33824;SDS011;20127;48.962;8.342;2022-07-25T02:57:25;9.60;;;6.25;;
33824;SDS011;20127;48.962;8.342;2022-07-25T03:00:26;8.48;;;5.88;;
33824;SDS011;20127;48.962;8.342;2022-07-25T03:03:29;7.72;;;5.60;;
33824;SDS011;20127;48.962;8.342;2022-07-25T03:06:32;9.23;;;5.72;;
33824;SDS011;20127;48.962;8.342;2022-07-25T03:09:34;10.38;;;5.93;;
33824;SDS011;20127;48.962;8.342;2022-07-25T03:12:36;8.88;;;5.53;;
33824;SDS011;20127;48.962;8.342;2022-07-25T03:15:38;9.00;;;6.45;;
33824;SDS011;20127;48.962;8.342;2022-07-25T03:18:39;7.07;;;5.85;;
33824;SDS011;20127;48.962;8.342;2022-07-25T03:21:42;10.80;;;6.90;;
33824;SDS011;20127;48.962;8.342;2022-07-25T03:24:45;8.63;;;6.05;;
33824;SDS011;20127;48.962;8.342;2022-07-25T03:27:46;6.35;;;5.55;;
33824;SDS011;20127;48.962;8.342;2022-07-25T03:30:49;7.28;;;6.07;;
33824;SDS011;20127;48.962;8.342;2022-07-25T03:33:51;7.78;;;5.90;;
33824;SDS011;20127;48.962;8.342;2022-07-25T03:36:54;8.23;;;6.00;;
33824;SDS011;20127;48.962;8.342;2022-07-25T03:39:55;7.45;;;6.00;;
33824;SDS011;20127;48.962;8.342;2022-07-25T03:42:57;8.32;;;5.80;;
33824;SDS011;20127;48.962;8.342;2022-07-25T03:45:59;9.43;;;7.72;;
33824;SDS011;20127;48.962;8.342;2022-07-25T03:49:01;7.03;;;5.90;;
33824;SDS011;20127;48.962;8.342;2022-07-25T03:52:04;8.25;;;6.82;;
33824;SDS011;20127;48.962;8.342;2022-07-25T03:55:06;9.75;;;6.72;;
33824;SDS011;20127;48.962;8.342;2022-07-25T03:58:09;7.57;;;5.97;;
33824;SDS011;20127;48.962;8.342;2022-07-25T04:01:11;10.63;;;8.10;;
33824;SDS011;20127;48.962;8.342;2022-07-25T04:04:13;10.73;;;6.15;;
33824;SDS011;20127;48.962;8.342;2022-07-25T04:07:16;12.43;;;6.65;;
33824;SDS011;20127;48.962;8.342;2022-07-25T04:10:18;9.65;;;6.18;;
33824;SDS011;20127;48.962;8.342;2022-07-25T04:13:20;7.53;;;6.30;;
33824;SDS011;20127;48.962;8.342;2022-07-25T04:16:21;9.82;;;6.47;;
33824;SDS011;20127;48.962;8.342;2022-07-25T04:19:23;8.02;;;6.30;;
33824;SDS011;20127;48.962;8.342;2022-07-25T04:22:26;11.50;;;6.63;;
33824;SDS011;20127;48.962;8.342;2022-07-25T04:25:28;10.40;;;7.00;;
33824;SDS011;20127;48.962;8.342;2022-07-25T04:28:30;7.43;;;6.13;;
33824;SDS011;20127;48.962;8.342;2022-07-25T04:31:32;9.93;;;6.57;;
33824;SDS011;20127;48.962;8.342;2022-07-25T04:34:33;10.65;;;5.97;;
33824;SDS011;20127;48.962;8.342;2022-07-25T04:37:37;7.97;;;6.65;;
33824;SDS011;20127;48.962;8.342;2022-07-25T04:40:38;8.27;;;5.90;;
33824;SDS011;20127;48.962;8.342;2022-07-25T04:43:40;12.07;;;6.18;;
33824;SDS011;20127;48.962;8.342;2022-07-25T04:46:42;7.35;;;6.00;;
33824;SDS011;20127;48.962;8.342;2022-07-25T04:49:44;8.52;;;6.20;;
33824;SDS011;20127;48.962;8.342;2022-07-25T04:52:47;10.93;;;7.00;;
33824;SDS011;20127;48.962;8.342;2022-07-25T04:55:49;12.90;;;8.90;;
33824;SDS011;20127;48.962;8.342;2022-07-25T04:58:50;7.28;;;5.40;;
33824;SDS011;20127;48.962;8.342;2022-07-25T05:01:52;9.07;;;5.95;;
33824;SDS011;20127;48.962;8.342;2022-07-25T05:04:54;8.77;;;6.03;;
33824;SDS011;20127;48.962;8.342;2022-07-25T05:07:57;7.85;;;5.57;;
33824;SDS011;20127;48.962;8.342;2022-07-25T05:11:00;8.95;;;6.07;;
33824;SDS011;20127;48.962;8.342;2022-07-25T05:14:01;8.20;;;6.25;;
33824;SDS011;20127;48.962;8.342;2022-07-25T05:17:03;8.18;;;5.40;;
33824;SDS011;20127;48.962;8.342;2022-07-25T05:20:05;11.50;;;5.90;;
33824;SDS011;20127;48.962;8.342;2022-07-25T05:23:09;10.70;;;5.78;;
33824;SDS011;20127;48.962;8.342;2022-07-25T05:26:11;7.53;;;5.68;;
33824;SDS011;20127;48.962;8.342;2022-07-25T05:29:13;15.38;;;5.43;;
33824;SDS011;20127;48.962;8.342;2022-07-25T05:32:14;6.22;;;4.93;;
33824;SDS011;20127;48.962;8.342;2022-07-25T05:35:16;12.18;;;6.07;;
33824;SDS011;20127;48.962;8.342;2022-07-25T05:38:19;8.55;;;4.95;;
33824;SDS011;20127;48.962;8.342;2022-07-25T05:41:21;6.03;;;4.72;;
33824;SDS011;20127;48.962;8.342;2022-07-25T05:44:23;7.63;;;5.20;;
33824;SDS011;20127;48.962;8.342;2022-07-25T05:47:25;4.30;;;3.88;;
33824;SDS011;20127;48.962;8.342;2022-07-25T05:50:26;10.80;;;4.07;;
33824;SDS011;20127;48.962;8.342;2022-07-25T05:53:29;5.30;;;4.40;;
33824;SDS011;20127;48.962;8.342;2022-07-25T05:56:31;4.97;;;3.90;;
33824;SDS011;20127;48.962;8.342;2022-07-25T05:59:33;6.25;;;3.42;;
33824;SDS011;20127;48.962;8.342;2022-07-25T06:02:35;5.90;;;4.25;;
33824;SDS011;20127;48.962;8.342;2022-07-25T06:05:36;6.45;;;4.88;;
33824;SDS011;20127;48.962;8.342;2022-07-25T06:08:40;6.13;;;4.05;;
33824;SDS011;20127;48.962;8.342;2022-07-25T06:11:42;4.50;;;4.05;;
33824;SDS011;20127;48.962;8.342;2022-07-25T06:14:43;5.68;;;3.67;;
33824;SDS011;20127;48.962;8.342;2022-07-25T06:17:45;5.03;;;4.20;;
33824;SDS011;20127;48.962;8.342;2022-07-25T06:20:47;5.32;;;4.38;;
33824;SDS011;20127;48.962;8.342;2022-07-25T06:23:50;4.85;;;3.90;;
33824;SDS011;20127;48.962;8.342;2022-07-25T06:26:51;6.03;;;4.22;;
33824;SDS011;20127;48.962;8.342;2022-07-25T06:29:53;3.92;;;3.40;;
33824;SDS011;20127;48.962;8.342;2022-07-25T06:32:55;7.22;;;3.63;;
33824;SDS011;20127;48.962;8.342;2022-07-25T06:35:57;5.47;;;3.00;;
33824;SDS011;20127;48.962;8.342;2022-07-25T06:39:00;6.05;;;3.70;;
33824;SDS011;20127;48.962;8.342;2022-07-25T06:42:02;4.32;;;3.30;;
33824;SDS011;20127;48.962;8.342;2022-07-25T06:45:04;4.60;;;3.33;;
33824;SDS011;20127;48.962;8.342;2022-07-25T06:48:08;3.95;;;3.38;;
33824;SDS011;20127;48.962;8.342;2022-07-25T06:51:10;5.38;;;3.33;;
33824;SDS011;20127;48.962;8.342;2022-07-25T06:54:13;4.20;;;3.33;;
33824;SDS011;20127;48.962;8.342;2022-07-25T06:57:14;6.00;;;3.00;;
33824;SDS011;20127;48.962;8.342;2022-07-25T07:00:16;4.10;;;3.42;;
33824;SDS011;20127;48.962;8.342;2022-07-25T07:03:18;3.97;;;3.38;;
33824;SDS011;20127;48.962;8.342;2022-07-25T07:06:20;5.70;;;3.05;;
33824;SDS011;20127;48.962;8.342;2022-07-25T07:09:23;7.50;;;3.63;;
33824;SDS011;20127;48.962;8.342;2022-07-25T07:12:25;4.32;;;2.60;;
33824;SDS011;20127;48.962;8.342;2022-07-25T07:15:26;5.32;;;3.40;;
33824;SDS011;20127;48.962;8.342;2022-07-25T07:18:28;4.05;;;2.90;;
33824;SDS011;20127;48.962;8.342;2022-07-25T07:21:30;5.07;;;2.45;;
33824;SDS011;20127;48.962;8.342;2022-07-25T07:24:33;7.35;;;3.30;;
33824;SDS011;20127;48.962;8.342;2022-07-25T07:27:35;5.63;;;3.00;;
33824;SDS011;20127;48.962;8.342;2022-07-25T07:30:36;4.40;;;3.33;;
33824;SDS011;20127;48.962;8.342;2022-07-25T07:33:38;4.68;;;3.25;;
33824;SDS011;20127;48.962;8.342;2022-07-25T07:36:40;5.70;;;2.97;;
33824;SDS011;20127;48.962;8.342;2022-07-25T07:39:43;3.83;;;3.10;;
33824;SDS011;20127;48.962;8.342;2022-07-25T07:42:45;4.40;;;3.10;;
33824;SDS011;20127;48.962;8.342;2022-07-25T07:45:48;6.28;;;3.55;;
33824;SDS011;20127;48.962;8.342;2022-07-25T07:48:50;11.52;;;2.83;;
33824;SDS011;20127;48.962;8.342;2022-07-25T07:51:51;8.40;;;3.08;;
33824;SDS011;20127;48.962;8.342;2022-07-25T07:54:54;5.95;;;3.00;;
33824;SDS011;20127;48.962;8.342;2022-07-25T07:58:14;6.90;;;2.85;;
33824;SDS011;20127;48.962;8.342;2022-07-25T08:01:17;4.20;;;2.55;;
33824;SDS011;20127;48.962;8.342;2022-07-25T08:04:19;9.35;;;3.03;;
33824;SDS011;20127;48.962;8.342;2022-07-25T08:07:21;5.72;;;2.40;;
33824;SDS011;20127;48.962;8.342;2022-07-25T08:10:25;5.38;;;3.00;;
33824;SDS011;20127;48.962;8.342;2022-07-25T08:13:29;6.00;;;3.88;;
33824;SDS011;20127;48.962;8.342;2022-07-25T08:16:32;3.28;;;2.95;;
33824;SDS011;20127;48.962;8.342;2022-07-25T08:19:34;3.85;;;3.20;;
33824;SDS011;20127;48.962;8.342;2022-07-25T08:22:36;10.18;;;2.78;;
33824;SDS011;20127;48.962;8.342;2022-07-25T08:25:41;4.28;;;2.90;;
33824;SDS011;20127;48.962;8.342;2022-07-25T08:28:43;3.38;;;2.42;;
33824;SDS011;20127;48.962;8.342;2022-07-25T08:31:45;4.05;;;3.05;;
33824;SDS011;20127;48.962;8.342;2022-07-25T08:34:47;4.95;;;2.58;;
33824;SDS011;20127;48.962;8.342;2022-07-25T08:37:49;4.88;;;3.20;;
33824;SDS011;20127;48.962;8.342;2022-07-25T08:40:53;2.88;;;2.60;;
33824;SDS011;20127;48.962;8.342;2022-07-25T08:43:55;8.55;;;2.88;;
33824;SDS011;20127;48.962;8.342;2022-07-25T08:46:57;6.70;;;2.60;;
33824;SDS011;20127;48.962;8.342;2022-07-25T08:50:01;4.65;;;2.72;;
33824;SDS011;20127;48.962;8.342;2022-07-25T08:53:04;7.70;;;3.67;;
33824;SDS011;20127;48.962;8.342;2022-07-25T08:56:08;7.57;;;3.05;;
33824;SDS011;20127;48.962;8.342;2022-07-25T08:59:09;5.15;;;3.13;;
33824;SDS011;20127;48.962;8.342;2022-07-25T09:02:12;20.65;;;4.00;;
33824;SDS011;20127;48.962;8.342;2022-07-25T09:05:14;13.50;;;2.95;;
33824;SDS011;20127;48.962;8.342;2022-07-25T09:08:17;8.30;;;3.38;;
33824;SDS011;20127;48.962;8.342;2022-07-25T09:11:27;5.43;;;3.22;;
33824;SDS011;20127;48.962;8.342;2022-07-25T09:14:38;4.55;;;3.35;;
33824;SDS011;20127;48.962;8.342;2022-07-25T09:17:48;7.35;;;3.45;;
33824;SDS011;20127;48.962;8.342;2022-07-25T09:20:51;6.38;;;3.88;;
33824;SDS011;20127;48.962;8.342;2022-07-25T09:23:54;7.80;;;3.40;;
33824;SDS011;20127;48.962;8.342;2022-07-25T09:26:58;4.00;;;3.53;;
33824;SDS011;20127;48.962;8.342;2022-07-25T09:30:00;4.45;;;3.50;;
33824;SDS011;20127;48.962;8.342;2022-07-25T09:33:12;4.68;;;3.33;;
33824;SDS011;20127;48.962;8.342;2022-07-25T09:36:14;4.93;;;3.10;;
33824;SDS011;20127;48.962;8.342;2022-07-25T09:39:16;7.38;;;3.03;;
33824;SDS011;20127;48.962;8.342;2022-07-25T09:42:23;5.88;;;3.50;;
33824;SDS011;20127;48.962;8.342;2022-07-25T09:45:26;5.05;;;3.30;;
33824;SDS011;20127;48.962;8.342;2022-07-25T09:48:28;6.97;;;3.80;;
33824;SDS011;20127;48.962;8.342;2022-07-25T09:51:31;4.32;;;3.70;;
33824;SDS011;20127;48.962;8.342;2022-07-25T09:54:33;4.55;;;3.20;;
33824;SDS011;20127;48.962;8.342;2022-07-25T09:57:36;6.18;;;3.10;;
33824;SDS011;20127;48.962;8.342;2022-07-25T10:00:39;4.30;;;2.67;;
33824;SDS011;20127;48.962;8.342;2022-07-25T10:03:44;4.15;;;3.03;;
33824;SDS011;20127;48.962;8.342;2022-07-25T10:06:52;4.75;;;3.13;;
33824;SDS011;20127;48.962;8.342;2022-07-25T10:10:05;3.58;;;2.60;;
33824;SDS011;20127;48.962;8.342;2022-07-25T10:13:09;5.00;;;2.95;;
33824;SDS011;20127;48.962;8.342;2022-07-25T10:16:14;7.75;;;3.03;;
33824;SDS011;20127;48.962;8.342;2022-07-25T10:22:42;3.50;;;2.63;;
33824;SDS011;20127;48.962;8.342;2022-07-25T10:25:45;4.25;;;3.38;;
33824;SDS011;20127;48.962;8.342;2022-07-25T10:28:49;4.43;;;2.55;;
33824;SDS011;20127;48.962;8.342;2022-07-25T10:31:52;5.32;;;2.90;;
33824;SDS011;20127;48.962;8.342;2022-07-25T10:35:10;4.47;;;3.00;;
33824;SDS011;20127;48.962;8.342;2022-07-25T10:38:22;2.83;;;2.25;;
33824;SDS011;20127;48.962;8.342;2022-07-25T10:41:24;3.42;;;3.13;;
33824;SDS011;20127;48.962;8.342;2022-07-25T10:44:38;4.25;;;2.58;;
33824;SDS011;20127;48.962;8.342;2022-07-25T10:47:41;3.58;;;2.80;;
33824;SDS011;20127;48.962;8.342;2022-07-25T10:50:56;9.88;;;3.00;;
33824;SDS011;20127;48.962;8.342;2022-07-25T10:53:59;6.80;;;3.38;;
33824;SDS011;20127;48.962;8.342;2022-07-25T10:57:13;8.10;;;2.92;;
33824;SDS011;20127;48.962;8.342;2022-07-25T11:00:17;3.85;;;3.15;;
33824;SDS011;20127;48.962;8.342;2022-07-25T11:03:19;3.45;;;3.03;;
33824;SDS011;20127;48.962;8.342;2022-07-25T11:09:42;4.10;;;3.00;;
33824;SDS011;20127;48.962;8.342;2022-07-25T11:12:44;4.15;;;3.00;;
33824;SDS011;20127;48.962;8.342;2022-07-25T11:15:47;5.38;;;3.15;;
33824;SDS011;20127;48.962;8.342;2022-07-25T11:18:49;3.95;;;2.70;;
33824;SDS011;20127;48.962;8.342;2022-07-25T11:21:54;5.78;;;2.80;;
33824;SDS011;20127;48.962;8.342;2022-07-25T11:24:57;3.13;;;2.65;;
33824;SDS011;20127;48.962;8.342;2022-07-25T11:27:59;4.47;;;2.88;;
33824;SDS011;20127;48.962;8.342;2022-07-25T11:31:04;4.75;;;2.83;;
33824;SDS011;20127;48.962;8.342;2022-07-25T11:34:06;4.30;;;2.28;;
33824;SDS011;20127;48.962;8.342;2022-07-25T11:37:08;4.18;;;2.22;;
33824;SDS011;20127;48.962;8.342;2022-07-25T11:40:12;7.30;;;2.63;;
33824;SDS011;20127;48.962;8.342;2022-07-25T11:43:18;5.20;;;2.60;;
33824;SDS011;20127;48.962;8.342;2022-07-25T11:46:22;7.00;;;3.15;;
33824;SDS011;20127;48.962;8.342;2022-07-25T11:49:23;5.85;;;2.40;;
33824;SDS011;20127;48.962;8.342;2022-07-25T11:52:26;3.55;;;2.58;;
33824;SDS011;20127;48.962;8.342;2022-07-25T11:55:30;6.55;;;2.53;;
33824;SDS011;20127;48.962;8.342;2022-07-25T11:58:35;3.67;;;2.25;;
33824;SDS011;20127;48.962;8.342;2022-07-25T12:01:39;6.38;;;2.28;;
33824;SDS011;20127;48.962;8.342;2022-07-25T12:04:51;3.70;;;2.30;;
33824;SDS011;20127;48.962;8.342;2022-07-25T12:07:53;5.72;;;2.42;;
33824;SDS011;20127;48.962;8.342;2022-07-25T12:10:55;11.10;;;2.70;;
33824;SDS011;20127;48.962;8.342;2022-07-25T12:14:01;3.00;;;2.53;;
33824;SDS011;20127;48.962;8.342;2022-07-25T12:17:05;7.80;;;2.67;;
33824;SDS011;20127;48.962;8.342;2022-07-25T12:20:11;3.55;;;2.35;;
33824;SDS011;20127;48.962;8.342;2022-07-25T12:23:15;4.43;;;2.72;;
33824;SDS011;20127;48.962;8.342;2022-07-25T12:26:17;3.55;;;2.45;;
33824;SDS011;20127;48.962;8.342;2022-07-25T12:29:20;6.68;;;2.55;;
33824;SDS011;20127;48.962;8.342;2022-07-25T12:32:23;5.88;;;3.10;;
33824;SDS011;20127;48.962;8.342;2022-07-25T12:35:24;3.33;;;2.40;;
33824;SDS011;20127;48.962;8.342;2022-07-25T12:38:27;7.15;;;2.90;;
33824;SDS011;20127;48.962;8.342;2022-07-25T12:41:28;3.67;;;2.55;;
33824;SDS011;20127;48.962;8.342;2022-07-25T12:44:30;5.93;;;2.45;;
33824;SDS011;20127;48.962;8.342;2022-07-25T12:47:33;8.13;;;2.70;;
33824;SDS011;20127;48.962;8.342;2022-07-25T12:50:35;4.93;;;2.40;;
33824;SDS011;20127;48.962;8.342;2022-07-25T12:53:37;8.05;;;3.42;;
33824;SDS011;20127;48.962;8.342;2022-07-25T12:56:39;4.22;;;2.90;;
33824;SDS011;20127;48.962;8.342;2022-07-25T12:59:41;6.57;;;2.60;;
33824;SDS011;20127;48.962;8.342;2022-07-25T13:02:44;5.45;;;2.97;;
33824;SDS011;20127;48.962;8.342;2022-07-25T13:05:46;3.22;;;2.88;;
33824;SDS011;20127;48.962;8.342;2022-07-25T13:08:48;6.43;;;2.70;;
33824;SDS011;20127;48.962;8.342;2022-07-25T13:11:50;5.10;;;2.88;;
33824;SDS011;20127;48.962;8.342;2022-07-25T13:14:51;3.28;;;2.67;;
33824;SDS011;20127;48.962;8.342;2022-07-25T13:17:55;13.68;;;2.95;;
33824;SDS011;20127;48.962;8.342;2022-07-25T13:20:57;3.35;;;2.70;;
33824;SDS011;20127;48.962;8.342;2022-07-25T13:23:59;5.28;;;2.72;;
33824;SDS011;20127;48.962;8.342;2022-07-25T13:27:02;3.40;;;2.60;;
33824;SDS011;20127;48.962;8.342;2022-07-25T13:30:05;3.47;;;2.95;;
33824;SDS011;20127;48.962;8.342;2022-07-25T13:33:09;3.20;;;2.47;;
33824;SDS011;20127;48.962;8.342;2022-07-25T13:36:10;5.55;;;3.00;;
33824;SDS011;20127;48.962;8.342;2022-07-25T13:39:12;3.17;;;2.60;;
33824;SDS011;20127;48.962;8.342;2022-07-25T13:42:14;3.95;;;2.72;;
33824;SDS011;20127;48.962;8.342;2022-07-25T13:45:15;2.90;;;2.35;;
33824;SDS011;20127;48.962;8.342;2022-07-25T13:48:19;4.85;;;2.90;;
33824;SDS011;20127;48.962;8.342;2022-07-25T13:51:20;4.38;;;2.60;;
33824;SDS011;20127;48.962;8.342;2022-07-25T13:54:22;8.13;;;3.42;;
33824;SDS011;20127;48.962;8.342;2022-07-25T13:57:24;4.65;;;2.78;;
33824;SDS011;20127;48.962;8.342;2022-07-25T14:00:25;4.15;;;2.88;;
33824;SDS011;20127;48.962;8.342;2022-07-25T14:03:28;8.45;;;2.85;;
33824;SDS011;20127;48.962;8.342;2022-07-25T14:06:30;7.40;;;3.15;;
33824;SDS011;20127;48.962;8.342;2022-07-25T14:09:33;5.72;;;2.75;;
33824;SDS011;20127;48.962;8.342;2022-07-25T14:12:35;6.75;;;3.75;;
33824;SDS011;20127;48.962;8.342;2022-07-25T14:15:38;8.18;;;3.42;;
33824;SDS011;20127;48.962;8.342;2022-07-25T14:18:41;15.35;;;3.83;;
33824;SDS011;20127;48.962;8.342;2022-07-25T14:21:43;18.67;;;5.05;;
33824;SDS011;20127;48.962;8.342;2022-07-25T14:24:45;6.82;;;3.65;;
33824;SDS011;20127;48.962;8.342;2022-07-25T14:27:46;6.20;;;3.55;;
33824;SDS011;20127;48.962;8.342;2022-07-25T14:30:48;9.50;;;4.28;;
33824;SDS011;20127;48.962;8.342;2022-07-25T14:33:51;4.72;;;3.30;;
33824;SDS011;20127;48.962;8.342;2022-07-25T14:36:53;10.63;;;5.15;;
33824;SDS011;20127;48.962;8.342;2022-07-25T14:39:55;4.95;;;3.83;;
33824;SDS011;20127;48.962;8.342;2022-07-25T14:42:57;9.68;;;3.70;;
33824;SDS011;20127;48.962;8.342;2022-07-25T14:45:59;14.05;;;3.70;;
33824;SDS011;20127;48.962;8.342;2022-07-25T14:49:02;5.80;;;3.67;;
33824;SDS011;20127;48.962;8.342;2022-07-25T14:52:04;6.97;;;3.53;;
33824;SDS011;20127;48.962;8.342;2022-07-25T14:55:06;5.03;;;3.13;;
33824;SDS011;20127;48.962;8.342;2022-07-25T14:58:09;5.75;;;3.55;;
33824;SDS011;20127;48.962;8.342;2022-07-25T15:01:12;8.93;;;3.20;;
33824;SDS011;20127;48.962;8.342;2022-07-25T15:04:18;5.53;;;3.10;;
33824;SDS011;20127;48.962;8.342;2022-07-25T15:07:22;6.10;;;3.55;;
33824;SDS011;20127;48.962;8.342;2022-07-25T15:10:23;4.53;;;3.10;;
33824;SDS011;20127;48.962;8.342;2022-07-25T15:13:25;6.55;;;3.63;;
33824;SDS011;20127;48.962;8.342;2022-07-25T15:16:27;6.03;;;3.00;;
33824;SDS011;20127;48.962;8.342;2022-07-25T15:19:30;7.10;;;2.70;;
33824;SDS011;20127;48.962;8.342;2022-07-25T15:22:32;4.38;;;2.72;;
33824;SDS011;20127;48.962;8.342;2022-07-25T15:25:33;4.15;;;2.75;;
33824;SDS011;20127;48.962;8.342;2022-07-25T15:28:36;5.70;;;2.75;;
33824;SDS011;20127;48.962;8.342;2022-07-25T15:31:38;4.40;;;2.38;;
33824;SDS011;20127;48.962;8.342;2022-07-25T15:34:41;4.53;;;2.30;;
33824;SDS011;20127;48.962;8.342;2022-07-25T15:37:42;6.20;;;2.30;;
33824;SDS011;20127;48.962;8.342;2022-07-25T15:40:44;4.40;;;2.58;;
33824;SDS011;20127;48.962;8.342;2022-07-25T15:43:46;4.28;;;2.10;;
33824;SDS011;20127;48.962;8.342;2022-07-25T15:46:48;16.58;;;2.40;;
33824;SDS011;20127;48.962;8.342;2022-07-25T15:49:51;9.27;;;2.67;;
33824;SDS011;20127;48.962;8.342;2022-07-25T15:52:53;6.25;;;2.45;;
33824;SDS011;20127;48.962;8.342;2022-07-25T15:55:55;3.33;;;1.98;;
33824;SDS011;20127;48.962;8.342;2022-07-25T15:58:56;12.30;;;2.53;;
33824;SDS011;20127;48.962;8.342;2022-07-25T16:01:58;4.53;;;1.95;;
33824;SDS011;20127;48.962;8.342;2022-07-25T16:05:02;7.72;;;2.50;;
33824;SDS011;20127;48.962;8.342;2022-07-25T16:08:04;12.25;;;3.13;;
33824;SDS011;20127;48.962;8.342;2022-07-25T16:11:07;6.15;;;2.67;;
33824;SDS011;20127;48.962;8.342;2022-07-25T16:14:09;9.50;;;2.20;;
33824;SDS011;20127;48.962;8.342;2022-07-25T16:17:10;6.55;;;2.03;;
33824;SDS011;20127;48.962;8.342;2022-07-25T16:20:14;5.40;;;2.03;;
33824;SDS011;20127;48.962;8.342;2022-07-25T16:23:15;7.38;;;2.08;;
33824;SDS011;20127;48.962;8.342;2022-07-25T16:26:18;8.80;;;2.20;;
33824;SDS011;20127;48.962;8.342;2022-07-25T16:29:20;4.45;;;2.10;;
33824;SDS011;20127;48.962;8.342;2022-07-25T16:32:21;8.30;;;2.65;;
33824;SDS011;20127;48.962;8.342;2022-07-25T16:35:25;11.73;;;2.30;;
33824;SDS011;20127;48.962;8.342;2022-07-25T16:38:26;5.18;;;2.20;;
33824;SDS011;20127;48.962;8.342;2022-07-25T16:41:29;4.25;;;2.28;;
33824;SDS011;20127;48.962;8.342;2022-07-25T16:44:30;6.75;;;2.30;;
33824;SDS011;20127;48.962;8.342;2022-07-25T16:47:32;4.05;;;1.90;;
33824;SDS011;20127;48.962;8.342;2022-07-25T16:50:35;13.50;;;2.78;;
33824;SDS011;20127;48.962;8.342;2022-07-25T16:53:37;6.07;;;1.90;;
33824;SDS011;20127;48.962;8.342;2022-07-25T16:56:39;8.40;;;2.22;;
33824;SDS011;20127;48.962;8.342;2022-07-25T16:59:41;9.50;;;2.38;;
33824;SDS011;20127;48.962;8.342;2022-07-25T17:02:43;7.97;;;2.55;;
33824;SDS011;20127;48.962;8.342;2022-07-25T17:05:47;6.32;;;2.13;;
33824;SDS011;20127;48.962;8.342;2022-07-25T17:08:50;8.15;;;2.03;;
33824;SDS011;20127;48.962;8.342;2022-07-25T17:11:52;10.65;;;2.63;;
33824;SDS011;20127;48.962;8.342;2022-07-25T17:14:53;5.70;;;2.20;;
33824;SDS011;20127;48.962;8.342;2022-07-25T17:17:55;10.82;;;2.72;;
33824;SDS011;20127;48.962;8.342;2022-07-25T17:20:58;11.20;;;2.80;;
33824;SDS011;20127;48.962;8.342;2022-07-25T17:24:00;7.43;;;1.85;;
33824;SDS011;20127;48.962;8.342;2022-07-25T17:27:02;7.80;;;1.65;;
33824;SDS011;20127;48.962;8.342;2022-07-25T17:30:05;3.40;;;1.33;;
33824;SDS011;20127;48.962;8.342;2022-07-25T17:33:07;4.90;;;1.58;;
33824;SDS011;20127;48.962;8.342;2022-07-25T17:36:11;3.80;;;1.48;;
33824;SDS011;20127;48.962;8.342;2022-07-25T17:39:13;4.88;;;1.77;;
33824;SDS011;20127;48.962;8.342;2022-07-25T17:42:15;6.25;;;1.95;;
33824;SDS011;20127;48.962;8.342;2022-07-25T17:45:21;5.85;;;1.85;;
33824;SDS011;20127;48.962;8.342;2022-07-25T17:48:23;7.32;;;1.83;;
33824;SDS011;20127;48.962;8.342;2022-07-25T17:51:26;5.35;;;1.50;;
33824;SDS011;20127;48.962;8.342;2022-07-25T17:54:28;9.68;;;1.90;;
33824;SDS011;20127;48.962;8.342;2022-07-25T17:57:29;6.40;;;1.85;;
33824;SDS011;20127;48.962;8.342;2022-07-25T18:00:32;4.35;;;1.55;;
33824;SDS011;20127;48.962;8.342;2022-07-25T18:03:34;6.32;;;1.50;;
33824;SDS011;20127;48.962;8.342;2022-07-25T18:06:37;2.90;;;1.30;;
33824;SDS011;20127;48.962;8.342;2022-07-25T18:09:39;3.20;;;1.13;;
33824;SDS011;20127;48.962;8.342;2022-07-25T18:12:41;7.15;;;1.77;;
33824;SDS011;20127;48.962;8.342;2022-07-25T18:15:43;3.40;;;1.60;;
33824;SDS011;20127;48.962;8.342;2022-07-25T18:18:46;3.28;;;1.60;;
33824;SDS011;20127;48.962;8.342;2022-07-25T18:21:49;5.95;;;1.73;;
33824;SDS011;20127;48.962;8.342;2022-07-25T18:24:50;5.03;;;1.40;;